aviador You're here:

PAVC Decoded Metar

KING COVE in AK, USA
Report Time2018-02-19 03:41:00
UTC Time2018-02-19 03:50:10
Flight Rules vfr VFR
Wind050° at 07 kt
W.Decomp.*RWY 07: 5.8 kt HW 3.9 kt LCW
W.Rank050° ranks 18
Current wind is below 050° avg. (10.4)
Visibility9656 m
Phenomena:Mist
Clouds:Few 011 Hf
Expected CloudBase > 400 ft AGL from Temp-Dew spread
CeilingNone
Temp03°C (ISA -12)
Dew Point02°C (93% RH)
AAT-1.2°C
QNH1030 hPa
Density Alt-1,745 ft
Elevation154 ft
Report Wrong Elevation
Raw Report
PAVC 190341Z AUTO 05007KT 6SM BR FEW011 03/02 A3041 RMK AO2=

Extra information for PAVC:More info

Metar Taf Metar & Taf Last 4 Metars F.Rules Stats Wind Profile Meteogram Temp Stats Airport Information Weather charts Add Link Nearby VenuesMetar ALERT Operation Metar Decoded Social comments

AIRNAV info for PAVC